Portada
METAR-TAF:

METAR-TAF

Aeropuertos :

Wellington, Nueva Zelanda

Aeropuerto Internacional de Wellington

latitud: 41-20S, longitud: 174-48E, altitud: 12 m

Observación

El informe se hizo hace 24 minutos, a las 01:30 UTC
Viento 14 kt del sur
Temperatura 11°C
Humedad 82%
Presión 1023 hPa
Visibilidad 10 km o más
chaparrones en las proximidades

METAR: NZWN 280130Z AUTO 19014KT 9999 VCSH BKN016/// OVC034/// 11/08 Q1023 NOSIG

Hora: 13:54 (01:54 UTC)

Pronóstico

El informe se hizo hace 2 horas y 53 minutos, a las 23:01 UTC
Pronóstico válido del 28 a las 00 UTC al 29 a las 00 UTC
Viento 15 kt del sur-suroeste
Visibilidad 10 km o más
Nubes dispersas a una altura de 1800 ft
Cielo nuboso a una altura de 3000 ft
chaparrones de lluvia
A partir de las 28 a las 1400 UTC
Viento 8 kt del sur-sureste
Visibilidad 10 km o más
Cielo nuboso a una altura de 4000 ft

TAF: NZWN 272301Z 2800/2900 20015KT 9999 -SHRA SCT018 BKN030 FM281400 16008KT 9999 BKN040

Observaciones y pronósticos meteorológicos de más de 4000 aeropuertos (mensajes METAR y TAF).

Los puntos amarillos y rojos representan las estaciones disponibles.

Ponga el ratón en el punto deseado para ver el nombre de la estación.

Haga clic para ver las observaciones y los pronósticos meteorológicos.

Para cambiar el mapa : haga clic en los botones verdes con una cruz de color negro para hacer un zoom, en el botón verde con un guión para alejar o en las flechas verdes para mapas adyacentes.


METAR-TAF: